createdAt,value
2018-05-09T00:01:08.741Z,14.70
2018-05-09T00:03:37.797Z,14.70
2018-05-09T00:06:06.080Z,14.70
2018-05-09T00:08:34.430Z,14.80
2018-05-09T00:11:03.499Z,14.70
2018-05-09T00:13:31.837Z,14.70
2018-05-09T00:16:00.190Z,14.60
2018-05-09T00:18:28.563Z,14.60
2018-05-09T00:20:56.853Z,14.60
2018-05-09T00:23:25.181Z,14.60
2018-05-09T00:25:54.236Z,14.80
2018-05-09T00:28:22.569Z,14.80
2018-05-09T00:30:50.910Z,14.80
2018-05-09T00:33:19.317Z,14.80
2018-05-09T00:35:47.605Z,14.80
2018-05-09T00:38:15.887Z,14.80
2018-05-09T00:40:44.513Z,14.70
2018-05-09T00:43:12.797Z,14.70
2018-05-09T00:45:41.113Z,14.70
2018-05-09T00:48:10.293Z,14.80
2018-05-09T00:50:38.581Z,14.70
2018-05-09T00:53:07.179Z,14.80
2018-05-09T00:55:35.483Z,14.90
2018-05-09T00:58:04.533Z,14.90
2018-05-09T01:00:33.279Z,14.90
2018-05-09T01:05:36.301Z,14.80
2018-05-09T01:08:04.641Z,14.70
2018-05-09T01:10:32.977Z,14.60
2018-05-09T01:13:01.369Z,14.60
2018-05-09T01:15:29.661Z,14.60
2018-05-09T01:17:58.000Z,14.60
2018-05-09T01:20:26.285Z,14.60
2018-05-09T01:22:54.566Z,14.70
2018-05-09T01:25:23.740Z,14.80
2018-05-09T01:27:51.987Z,14.80
2018-05-09T01:30:20.317Z,14.80
2018-05-09T01:32:48.601Z,14.80
2018-05-09T01:35:17.001Z,14.70
2018-05-09T01:37:45.284Z,14.60
2018-05-09T01:40:14.097Z,14.60
2018-05-09T01:42:42.579Z,14.60
2018-05-09T01:45:10.873Z,14.60
2018-05-09T01:47:39.269Z,14.50
2018-05-09T01:50:07.611Z,14.50
2018-05-09T01:52:35.894Z,14.40
2018-05-09T01:55:04.211Z,14.40
2018-05-09T01:57:32.550Z,14.30
2018-05-09T02:00:01.699Z,14.40
2018-05-09T02:02:30.333Z,14.50
2018-05-09T02:04:58.621Z,14.50
2018-05-09T02:07:26.901Z,14.40
2018-05-09T02:09:55.246Z,14.40
2018-05-09T02:12:23.594Z,14.30
2018-05-09T02:14:51.896Z,14.20
2018-05-09T02:17:20.230Z,14.10
2018-05-09T02:19:48.517Z,14.20
2018-05-09T02:22:16.869Z,14.10
2018-05-09T02:24:45.209Z,14.00
2018-05-09T02:27:13.493Z,14.00
2018-05-09T02:29:41.782Z,13.90
2018-05-09T02:32:10.125Z,13.80
2018-05-09T02:34:38.409Z,13.70
2018-05-09T02:37:06.757Z,13.70
2018-05-09T02:39:35.049Z,13.70
2018-05-09T02:42:03.633Z,13.80
2018-05-09T02:44:31.917Z,13.80
2018-05-09T02:47:00.257Z,13.90
2018-05-09T02:49:28.599Z,13.90
2018-05-09T02:51:56.941Z,13.80
2018-05-09T02:54:25.221Z,13.70
2018-05-09T02:56:53.557Z,13.70
2018-05-09T02:59:21.903Z,13.60
2018-05-09T03:01:50.189Z,13.60
2018-05-09T03:04:18.578Z,13.50
2018-05-09T03:06:46.862Z,13.50
2018-05-09T03:09:15.206Z,13.40
2018-05-09T03:11:43.545Z,13.30
2018-05-09T03:14:11.946Z,13.20
2018-05-09T03:16:40.289Z,13.10
2018-05-09T03:19:08.572Z,13.30
2018-05-09T03:21:36.918Z,13.10
2018-05-09T03:24:05.240Z,13.20
2018-05-09T03:26:33.529Z,13.30
2018-05-09T03:29:01.874Z,13.20
2018-05-09T03:31:30.153Z,13.20
2018-05-09T03:33:58.513Z,13.20
2018-05-09T03:36:26.949Z,13.20
2018-05-09T03:38:55.245Z,13.20
2018-05-09T03:41:23.533Z,13.20
2018-05-09T03:43:51.936Z,13.10
2018-05-09T03:46:20.274Z,13.10
2018-05-09T03:48:48.609Z,13.00
2018-05-09T03:51:16.901Z,12.90
2018-05-09T03:53:45.241Z,13.00
2018-05-09T03:56:13.529Z,13.20
2018-05-09T03:58:41.869Z,13.50
2018-05-09T04:01:10.213Z,13.60
2018-05-09T04:03:50.423Z,13.60
2018-05-09T04:06:30.685Z,13.80
2018-05-09T04:09:10.781Z,13.80
2018-05-09T04:11:39.134Z,13.60
2018-05-09T04:14:07.480Z,13.70
2018-05-09T04:16:36.592Z,14.00
2018-05-09T04:19:05.646Z,14.20
2018-05-09T04:21:33.929Z,14.20
2018-05-09T04:24:02.276Z,14.30
2018-05-09T04:26:31.321Z,14.60
2018-05-09T04:28:59.604Z,14.60
2018-05-09T04:31:27.973Z,14.60
2018-05-09T04:33:56.253Z,14.80
2018-05-09T04:36:24.554Z,14.80
2018-05-09T04:38:52.889Z,15.00
2018-05-09T04:41:21.212Z,14.90
2018-05-09T04:43:50.310Z,14.80
2018-05-09T04:46:18.665Z,14.80
2018-05-09T04:48:46.948Z,14.90
2018-05-09T04:51:15.237Z,15.00
2018-05-09T04:53:43.577Z,15.00
2018-05-09T04:56:12.745Z,15.10
2018-05-09T04:58:41.037Z,15.10
2018-05-09T05:01:09.377Z,15.10
2018-05-09T05:03:38.425Z,15.50
2018-05-09T05:06:06.857Z,15.40
2018-05-09T05:08:36.050Z,15.70
2018-05-09T05:11:04.337Z,15.60
2018-05-09T05:13:32.818Z,15.60
2018-05-09T05:16:01.095Z,15.50
2018-05-09T05:18:29.453Z,15.60
2018-05-09T05:20:57.734Z,15.50
2018-05-09T05:23:26.789Z,15.80
2018-05-09T05:25:55.449Z,15.70
2018-05-09T05:28:23.730Z,15.80
2018-05-09T05:30:52.017Z,15.80
2018-05-09T05:33:21.142Z,16.00
2018-05-09T05:35:49.431Z,16.00
2018-05-09T05:38:17.765Z,16.10
2018-05-09T05:40:46.109Z,16.20
2018-05-09T05:43:14.469Z,16.30
2018-05-09T05:45:42.880Z,16.60
2018-05-09T05:48:11.936Z,16.50
2018-05-09T05:50:40.276Z,16.40
2018-05-09T05:53:08.636Z,16.70
2018-05-09T05:55:38.485Z,16.50
2018-05-09T05:58:07.597Z,16.40
2018-05-09T06:00:36.152Z,16.40
2018-05-09T06:03:04.440Z,16.50
2018-05-09T06:05:32.741Z,16.50
2018-05-09T06:08:01.139Z,16.60
2018-05-09T06:10:29.517Z,16.60
2018-05-09T06:12:57.874Z,16.80
2018-05-09T06:15:26.166Z,16.90
2018-05-09T06:17:54.821Z,17.00
2018-05-09T06:20:23.881Z,17.10
2018-05-09T06:22:52.171Z,17.10
2018-05-09T06:25:20.893Z,17.30
2018-05-09T06:27:49.182Z,17.50
2018-05-09T06:30:17.479Z,17.60
2018-05-09T06:32:47.330Z,17.30
2018-05-09T06:35:16.461Z,17.50
2018-05-09T06:37:44.819Z,17.50
2018-05-09T06:40:13.173Z,17.60
2018-05-09T06:42:41.520Z,17.90
2018-05-09T06:45:09.868Z,18.00
2018-05-09T06:47:38.165Z,18.20
2018-05-09T06:50:08.036Z,18.40
2018-05-09T06:52:36.326Z,18.40
2018-05-09T06:55:04.669Z,18.40
2018-05-09T06:57:32.963Z,18.60
2018-05-09T07:00:01.379Z,18.80
2018-05-09T07:02:30.455Z,18.50
2018-05-09T07:04:58.805Z,18.50
2018-05-09T07:07:27.150Z,18.70
2018-05-09T07:09:56.202Z,19.00
2018-05-09T07:12:24.548Z,19.10
2018-05-09T07:14:53.657Z,18.90
2018-05-09T07:17:22.781Z,19.10
2018-05-09T07:19:51.903Z,19.50
2018-05-09T07:22:20.193Z,19.50
2018-05-09T07:24:48.493Z,19.70
2018-05-09T07:27:16.833Z,19.80
2018-05-09T07:29:45.185Z,19.90
2018-05-09T07:32:13.465Z,20.00
2018-05-09T07:34:41.820Z,20.00
2018-05-09T07:37:10.917Z,20.30
2018-05-09T07:39:39.977Z,20.40
2018-05-09T07:42:08.419Z,20.40
2018-05-09T07:44:36.704Z,20.40
2018-05-09T07:47:04.981Z,20.60
2018-05-09T07:49:33.335Z,20.80
2018-05-09T07:52:01.690Z,20.90
2018-05-09T07:54:30.813Z,20.80
2018-05-09T07:56:59.113Z,20.80
2018-05-09T07:59:27.407Z,20.90
2018-05-09T08:01:55.751Z,21.10
2018-05-09T08:04:24.034Z,21.40
2018-05-09T08:06:52.621Z,21.30
2018-05-09T08:09:21.013Z,21.60
2018-05-09T08:11:49.297Z,21.50
2018-05-09T08:14:17.653Z,21.60
2018-05-09T08:16:47.635Z,21.50
2018-05-09T08:19:16.692Z,21.50
2018-05-09T08:21:45.029Z,21.40
2018-05-09T08:24:13.373Z,21.80
2018-05-09T08:26:41.652Z,22.30
2018-05-09T08:29:10.014Z,22.30
2018-05-09T08:31:39.196Z,22.60
2018-05-09T08:34:07.485Z,22.50
2018-05-09T08:36:35.871Z,22.40
2018-05-09T08:39:04.129Z,22.30
2018-05-09T08:41:32.433Z,22.40
2018-05-09T08:44:00.875Z,22.50
2018-05-09T08:46:29.109Z,22.80
2018-05-09T08:48:57.453Z,22.90
2018-05-09T08:51:26.509Z,23.20
2018-05-09T08:53:54.893Z,23.20
2018-05-09T08:56:23.181Z,23.20
2018-05-09T08:58:51.469Z,23.00
2018-05-09T09:01:19.809Z,23.20
2018-05-09T09:03:48.167Z,23.40
2018-05-09T09:06:16.449Z,23.70
2018-05-09T09:08:44.741Z,23.70
2018-05-09T09:11:13.092Z,23.80
2018-05-09T09:13:42.205Z,23.90
2018-05-09T09:16:10.572Z,23.80
2018-05-09T09:18:38.946Z,24.00
2018-05-09T09:21:07.218Z,24.00
2018-05-09T09:23:35.581Z,24.00
2018-05-09T09:26:03.866Z,24.00
2018-05-09T09:28:32.153Z,24.10
2018-05-09T09:31:00.897Z,24.30
2018-05-09T09:33:29.301Z,24.40
2018-05-09T09:35:57.585Z,24.60
2018-05-09T09:38:25.949Z,24.70
2018-05-09T09:40:54.232Z,24.80
2018-05-09T09:43:22.541Z,24.90
2018-05-09T09:45:50.892Z,24.80
2018-05-09T09:48:19.188Z,24.70
2018-05-09T09:50:47.722Z,24.70
2018-05-09T09:53:16.129Z,24.80
2018-05-09T09:55:44.413Z,24.90
2018-05-09T09:58:12.696Z,25.00
2018-05-09T10:00:41.805Z,25.10
2018-05-09T10:03:10.089Z,25.10
2018-05-09T10:05:38.433Z,25.10
2018-05-09T10:08:06.820Z,25.20
2018-05-09T10:10:35.101Z,25.30
2018-05-09T10:13:04.167Z,25.50
2018-05-09T10:15:32.616Z,25.50
2018-05-09T10:18:00.957Z,25.30
2018-05-09T10:20:29.353Z,25.10
2018-05-09T10:22:57.697Z,25.20
2018-05-09T10:25:25.977Z,25.20
2018-05-09T10:27:54.273Z,25.30
2018-05-09T10:30:22.609Z,25.40
2018-05-09T10:32:50.984Z,25.50
2018-05-09T10:35:19.265Z,25.60
2018-05-09T10:37:47.563Z,25.80
2018-05-09T10:40:16.286Z,25.30
2018-05-09T10:42:44.568Z,25.10
2018-05-09T10:45:14.361Z,24.50
2018-05-09T10:47:42.707Z,24.50
2018-05-09T10:50:11.755Z,24.20
2018-05-09T10:52:40.041Z,24.20
2018-05-09T10:55:09.269Z,24.20
2018-05-09T10:57:37.561Z,24.40
2018-05-09T11:00:05.916Z,24.70
2018-05-09T11:02:34.219Z,24.70
2018-05-09T11:05:02.839Z,24.50
2018-05-09T11:07:31.841Z,24.60
2018-05-09T11:10:00.189Z,24.60
2018-05-09T11:12:28.469Z,24.60
2018-05-09T11:14:57.521Z,24.40
2018-05-09T11:17:25.866Z,24.40
2018-05-09T11:19:54.930Z,25.00
2018-05-09T11:22:23.230Z,25.00
2018-05-09T11:24:51.569Z,25.60
2018-05-09T11:27:20.217Z,26.00
2018-05-09T11:29:48.610Z,26.20
2018-05-09T11:32:16.891Z,26.40
2018-05-09T11:34:45.275Z,26.50
2018-05-09T11:37:13.606Z,26.10
2018-05-09T11:39:42.705Z,26.90
2018-05-09T11:42:10.989Z,26.80
2018-05-09T11:44:39.347Z,27.00
2018-05-09T11:47:07.753Z,26.80
2018-05-09T11:49:36.043Z,26.60
2018-05-09T11:52:04.392Z,26.60
2018-05-09T11:54:32.830Z,26.40
2018-05-09T11:57:01.169Z,26.00
2018-05-09T11:59:29.521Z,25.70
2018-05-09T12:01:57.817Z,25.70
2018-05-09T12:04:26.131Z,26.10
2018-05-09T12:06:54.492Z,26.70
2018-05-09T12:09:22.817Z,27.00
2018-05-09T12:11:51.099Z,27.10
2018-05-09T12:14:19.456Z,27.40
2018-05-09T12:16:47.734Z,27.20
2018-05-09T12:19:16.032Z,26.80
2018-05-09T12:21:44.422Z,27.20
2018-05-09T12:24:13.073Z,27.60
2018-05-09T12:26:41.411Z,27.50
2018-05-09T12:29:09.685Z,27.10
2018-05-09T12:31:38.021Z,26.70
2018-05-09T12:34:07.137Z,26.50
2018-05-09T12:36:35.425Z,26.40
2018-05-09T12:39:03.858Z,26.40
2018-05-09T12:41:32.559Z,26.40
2018-05-09T12:44:00.904Z,26.60
2018-05-09T12:46:29.189Z,26.70
2018-05-09T12:48:57.542Z,27.10
2018-05-09T12:51:25.833Z,27.60
2018-05-09T12:53:54.122Z,27.20
2018-05-09T12:56:22.476Z,27.10
2018-05-09T12:58:50.762Z,27.50
2018-05-09T13:01:19.080Z,27.60
2018-05-09T13:03:47.429Z,27.20
2018-05-09T13:06:15.713Z,27.20
2018-05-09T13:08:44.061Z,27.20
2018-05-09T13:11:12.751Z,27.00
2018-05-09T13:13:41.153Z,27.30
2018-05-09T13:16:09.846Z,27.50
2018-05-09T13:18:38.138Z,27.70
2018-05-09T13:21:06.578Z,27.80
2018-05-09T13:23:34.948Z,27.90
2018-05-09T13:26:03.476Z,27.80
2018-05-09T13:28:32.587Z,27.70
2018-05-09T13:31:00.880Z,27.70
2018-05-09T13:33:29.301Z,28.00
2018-05-09T13:35:58.358Z,28.20
2018-05-09T13:38:26.642Z,28.20
2018-05-09T13:40:54.975Z,27.90
2018-05-09T13:43:23.260Z,27.50
2018-05-09T13:45:51.595Z,27.10
2018-05-09T13:48:19.962Z,26.90
2018-05-09T13:50:48.250Z,27.10
2018-05-09T13:53:16.586Z,27.20
2018-05-09T13:55:44.909Z,27.20
2018-05-09T13:58:13.245Z,27.30
2018-05-09T14:00:42.373Z,27.70
2018-05-09T14:03:11.445Z,27.80
2018-05-09T14:05:39.809Z,27.80
2018-05-09T14:08:08.103Z,27.20
2018-05-09T14:10:38.402Z,26.70
2018-05-09T14:13:06.709Z,26.70
2018-05-09T14:15:35.036Z,26.80
2018-05-09T14:18:03.386Z,27.30
2018-05-09T14:20:31.727Z,27.30
2018-05-09T14:23:00.027Z,27.30
2018-05-09T14:25:28.501Z,27.60
2018-05-09T14:27:56.790Z,27.60
2018-05-09T14:30:25.069Z,27.20
2018-05-09T14:32:54.182Z,26.50
2018-05-09T14:35:23.232Z,26.10
2018-05-09T14:37:51.976Z,26.10
2018-05-09T14:40:20.302Z,26.30
2018-05-09T14:42:48.584Z,26.70
2018-05-09T14:45:16.937Z,26.90
2018-05-09T14:47:45.240Z,26.90
2018-05-09T14:50:19.200Z,27.20
2018-05-09T14:52:48.929Z,27.50
2018-05-09T14:55:19.242Z,27.50
2018-05-09T14:57:48.289Z,27.80
2018-05-09T15:00:16.663Z,27.70
2018-05-09T15:02:44.925Z,27.90
2018-05-09T15:05:13.981Z,28.70
2018-05-09T15:07:42.265Z,28.60
2018-05-09T15:10:10.609Z,28.80
2018-05-09T15:12:38.893Z,29.00
2018-05-09T15:15:07.241Z,29.80
2018-05-09T15:17:35.557Z,30.10
2018-05-09T15:20:03.897Z,31.10
2018-05-09T15:22:32.341Z,32.00
2018-05-09T15:25:00.621Z,32.60
2018-05-09T15:27:29.328Z,33.10
2018-05-09T15:29:57.608Z,34.10
2018-05-09T15:32:26.000Z,34.40
2018-05-09T15:34:54.392Z,33.20
2018-05-09T15:37:22.688Z,32.10
2018-05-09T15:39:50.969Z,30.90
2018-05-09T15:42:19.357Z,30.40
2018-05-09T15:44:47.670Z,31.00
2018-05-09T15:47:15.931Z,31.30
2018-05-09T15:49:44.277Z,31.10
2018-05-09T15:52:14.570Z,30.90
2018-05-09T15:54:43.268Z,30.90
2018-05-09T15:57:13.495Z,30.70
2018-05-09T15:59:42.585Z,30.70
2018-05-09T16:02:11.035Z,29.60
2018-05-09T16:04:40.081Z,30.50
2018-05-09T16:07:08.699Z,30.50
2018-05-09T16:09:37.194Z,31.60
2018-05-09T16:12:05.548Z,31.50
2018-05-09T16:14:33.877Z,31.40
2018-05-09T16:17:02.165Z,30.90
2018-05-09T16:19:30.509Z,30.70
2018-05-09T16:21:58.797Z,30.70
2018-05-09T16:24:27.152Z,30.90
2018-05-09T16:26:55.481Z,31.10
2018-05-09T16:29:23.766Z,31.00
2018-05-09T16:31:52.109Z,31.00
2018-05-09T16:34:20.396Z,30.70
2018-05-09T16:36:48.812Z,30.70
2018-05-09T16:39:17.087Z,29.90
2018-05-09T16:41:45.481Z,29.20
2018-05-09T16:44:13.829Z,28.80
2018-05-09T16:46:42.110Z,28.40
2018-05-09T16:49:10.456Z,28.20
2018-05-09T16:51:39.560Z,28.30
2018-05-09T16:54:07.837Z,28.30
2018-05-09T16:56:36.117Z,27.90
2018-05-09T16:59:04.817Z,27.40
2018-05-09T17:01:33.480Z,27.20
2018-05-09T17:04:02.521Z,26.90
2018-05-09T17:06:32.263Z,26.70
2018-05-09T17:09:01.352Z,26.60
2018-05-09T17:11:30.072Z,26.50
2018-05-09T17:13:58.543Z,26.30
2018-05-09T17:16:27.037Z,26.20
2018-05-09T17:18:55.634Z,26.00
2018-05-09T17:21:37.442Z,25.40
2018-05-09T17:24:06.552Z,25.30
2018-05-09T17:26:35.366Z,25.20
2018-05-09T17:29:04.359Z,25.10
2018-05-09T17:31:33.670Z,25.00
2018-05-09T17:34:02.317Z,24.80
2018-05-09T17:36:31.783Z,24.50
2018-05-09T17:39:00.808Z,24.50
2018-05-09T17:41:29.494Z,24.40
2018-05-09T17:43:58.069Z,24.20
2018-05-09T17:46:27.678Z,24.00
2018-05-09T17:48:56.001Z,23.90
2018-05-09T17:51:24.590Z,23.70
2018-05-09T17:53:52.865Z,23.70
2018-05-09T17:56:21.184Z,23.60
2018-05-09T17:58:49.664Z,23.50
2018-05-09T18:01:17.954Z,23.40
2018-05-09T18:03:46.233Z,23.30
2018-05-09T18:06:15.767Z,23.10
2018-05-09T18:08:44.049Z,23.10
2018-05-09T18:11:12.761Z,23.00
2018-05-09T18:13:41.097Z,22.80
2018-05-09T18:16:09.436Z,22.70
2018-05-09T18:18:37.833Z,22.70
2018-05-09T18:21:06.113Z,22.60
2018-05-09T18:23:34.400Z,22.50
2018-05-09T18:26:02.792Z,22.20
2018-05-09T18:28:31.393Z,22.00
2018-05-09T18:30:59.677Z,21.90
2018-05-09T18:33:27.973Z,21.70
2018-05-09T18:35:56.304Z,21.50
2018-05-09T18:38:24.589Z,21.30
2018-05-09T18:40:53.862Z,21.10
2018-05-09T18:43:22.141Z,21.10
2018-05-09T18:45:50.429Z,21.00
2018-05-09T18:48:18.829Z,20.90
2018-05-09T18:50:47.177Z,20.90
2018-05-09T18:53:15.646Z,20.80
2018-05-09T18:55:44.705Z,20.50
2018-05-09T18:58:13.801Z,20.30
2018-05-09T19:00:42.107Z,20.30
2018-05-09T19:03:10.449Z,20.20
2018-05-09T19:05:39.500Z,20.00
2018-05-09T19:08:07.845Z,20.00
2018-05-09T19:10:36.893Z,19.80
2018-05-09T19:13:05.181Z,19.70
2018-05-09T19:15:33.517Z,19.80
2018-05-09T19:18:02.573Z,19.60
2018-05-09T19:20:30.996Z,19.60
2018-05-09T19:22:59.346Z,19.70
2018-05-09T19:25:27.701Z,19.70
2018-05-09T19:27:56.747Z,19.50
2018-05-09T19:30:25.089Z,19.50
2018-05-09T19:32:54.784Z,19.40
2018-05-09T19:35:23.065Z,19.30
2018-05-09T19:37:51.650Z,19.20
2018-05-09T19:40:19.930Z,19.20
2018-05-09T19:42:48.220Z,19.30
2018-05-09T19:45:16.644Z,19.20
2018-05-09T19:47:45.058Z,19.00
2018-05-09T19:50:13.300Z,18.90
2018-05-09T19:52:41.653Z,18.70
2018-05-09T19:55:10.715Z,18.50
2018-05-09T19:57:38.997Z,18.50
2018-05-09T20:00:07.345Z,18.50
2018-05-09T20:02:36.503Z,18.50
2018-05-09T20:05:04.895Z,18.50
2018-05-09T20:07:33.234Z,18.50
2018-05-09T20:10:01.521Z,18.40
2018-05-09T20:12:30.647Z,18.30
2018-05-09T20:14:58.925Z,18.30
2018-05-09T20:17:27.268Z,18.20
2018-05-09T20:19:55.550Z,18.20
2018-05-09T20:22:23.901Z,18.20
2018-05-09T20:24:52.208Z,18.20
2018-05-09T20:27:20.628Z,18.20
2018-05-09T20:29:49.022Z,18.10
2018-05-09T20:32:29.084Z,18.00
2018-05-09T20:34:57.423Z,18.00
2018-05-09T20:37:25.708Z,17.90
2018-05-09T20:39:54.069Z,17.80
2018-05-09T20:42:22.366Z,17.80
2018-05-09T20:44:50.788Z,17.70
2018-05-09T20:47:19.219Z,17.60
2018-05-09T20:49:47.520Z,17.60
2018-05-09T20:52:16.270Z,17.60
2018-05-09T20:54:44.605Z,17.60
2018-05-09T20:57:13.310Z,17.60
2018-05-09T20:59:41.601Z,17.70
2018-05-09T21:02:09.889Z,17.90
2018-05-09T21:04:38.446Z,18.10
2018-05-09T21:07:07.541Z,18.20
2018-05-09T21:09:35.905Z,18.20
2018-05-09T21:12:09.244Z,18.20
2018-05-09T21:14:38.448Z,18.00
2018-05-09T21:17:06.985Z,18.00
2018-05-09T21:19:35.491Z,18.10
2018-05-09T21:22:03.892Z,18.10
2018-05-09T21:24:33.062Z,18.20
2018-05-09T21:27:01.937Z,18.40
2018-05-09T21:29:30.309Z,18.50
2018-05-09T21:31:58.592Z,18.40
2018-05-09T21:34:28.621Z,18.30
2018-05-09T21:36:57.829Z,18.10
2018-05-09T21:39:26.213Z,18.10
2018-05-09T21:41:54.541Z,17.90
2018-05-09T21:44:23.590Z,17.90
2018-05-09T21:46:51.929Z,17.80
2018-05-09T21:49:21.001Z,17.80
2018-05-09T21:51:49.337Z,17.70
2018-05-09T21:54:18.385Z,17.50
2018-05-09T21:56:47.102Z,17.50
2018-05-09T21:59:15.385Z,17.40
2018-05-09T22:01:43.673Z,17.30
2018-05-09T22:04:12.009Z,17.10
2018-05-09T22:06:41.061Z,17.00
2018-05-09T22:09:09.373Z,16.90
2018-05-09T22:11:37.757Z,17.00
2018-05-09T22:14:06.161Z,17.00
2018-05-09T22:16:34.498Z,17.00
2018-05-09T22:19:02.927Z,16.90
2018-05-09T22:21:31.269Z,16.80
2018-05-09T22:23:59.551Z,16.70
2018-05-09T22:26:28.644Z,16.40
2018-05-09T22:28:57.728Z,16.40
2018-05-09T22:31:26.066Z,16.40
2018-05-09T22:33:54.345Z,16.30
2018-05-09T22:36:23.399Z,16.30
2018-05-09T22:38:51.729Z,16.30
2018-05-09T22:41:20.792Z,16.30
2018-05-09T22:43:49.191Z,16.30
2018-05-09T22:46:17.666Z,16.20
2018-05-09T22:48:45.985Z,16.20
2018-05-09T22:51:14.269Z,16.10
2018-05-09T22:53:42.622Z,16.10
2018-05-09T22:56:10.917Z,16.00
2018-05-09T22:58:39.268Z,15.90
2018-05-09T23:01:07.553Z,15.80
2018-05-09T23:03:35.841Z,15.70
2018-05-09T23:06:04.185Z,15.70
2018-05-09T23:08:32.472Z,15.90
2018-05-09T23:11:00.804Z,15.90
2018-05-09T23:13:29.093Z,16.00
2018-05-09T23:15:58.208Z,15.80
2018-05-09T23:18:26.488Z,15.70
2018-05-09T23:20:54.865Z,15.80
2018-05-09T23:23:23.146Z,15.80
2018-05-09T23:25:51.429Z,15.80
2018-05-09T23:28:20.044Z,15.80
2018-05-09T23:30:48.321Z,15.90
2018-05-09T23:33:16.601Z,15.80
2018-05-09T23:35:44.940Z,15.70
2018-05-09T23:38:14.119Z,15.50
2018-05-09T23:40:42.466Z,15.50
2018-05-09T23:43:10.713Z,15.60
2018-05-09T23:45:39.045Z,15.50
2018-05-09T23:48:07.399Z,15.50
2018-05-09T23:50:35.685Z,15.70
2018-05-09T23:53:04.022Z,15.60
2018-05-09T23:55:32.448Z,15.60
2018-05-09T23:58:01.469Z,15.60
